Time;durP1;ratioP1;P1;durP2;ratioP2;P2;SDS_P1;SDS_P2;PMS_P1;PMS_P2;Temp;Humidity;BMP_temperature;BMP_pressure;BME280_temperature;BME280_humidity;BME280_pressure;Samples;Min_cycle;Max_cycle;Signal;HPM_P1;HPM_P2
2023/03/24 00:01:05;;;;;;;6.40;3.28;;;14.70;61.60;;;;;;5047730;28;20025;-75
2023/03/24 00:03:32;;;;;;;2.35;1.88;;;14.70;62.10;;;;;;5047275;28;20064;-75
2023/03/24 00:06:02;;;;;;;4.63;2.33;;;14.60;80.10;;;;;;5048392;28;20049;-75
2023/03/24 00:08:29;;;;;;;3.03;1.75;;;14.70;62.60;;;;;;5048019;28;20560;-75
2023/03/24 00:10:59;;;;;;;5.38;1.92;;;14.70;62.20;;;;;;5047894;28;20487;-75
2023/03/24 00:13:25;;;;;;;1.83;1.50;;;;;;;;;;5048139;28;20033;-76
2023/03/24 00:15:51;;;;;;;1.77;1.30;;;;;;;;;;5043337;28;20033;-75
2023/03/24 00:18:17;;;;;;;2.00;1.52;;;14.60;82.50;;;;;;5044861;28;20037;-75
2023/03/24 00:20:44;;;;;;;2.55;1.88;;;14.80;62.70;;;;;;5047474;28;20639;-75
2023/03/24 00:23:11;;;;;;;;;;;14.80;63.10;;;;;;5048390;28;20032;-76
2023/03/24 00:25:39;;;;;;;4.43;2.00;;;;;;;;;;5048251;28;19951;-76
2023/03/24 00:28:06;;;;;;;3.45;1.80;;;;;;;;;;5046195;28;20047;-75
2023/03/24 00:30:33;;;;;;;4.93;1.88;;;14.60;70.80;;;;;;5048127;28;20051;-75
2023/03/24 00:33:00;;;;;;;4.30;1.70;;;;;;;;;;5048099;28;20031;-75
2023/03/24 00:35:27;;;;;;;2.13;1.73;;;14.70;63.90;;;;;;5047838;28;20041;-75
2023/03/24 00:37:53;;;;;;;1.85;1.30;;;14.70;68.40;;;;;;5047295;28;20113;-75
2023/03/24 00:40:20;;;;;;;1.88;1.40;;;14.70;63.80;;;;;;5046463;28;20025;-75
2023/03/24 00:42:47;;;;;;;1.73;1.35;;;14.90;66.20;;;;;;5047742;28;20033;-75
2023/03/24 00:45:21;;;;;;;3.47;1.80;;;14.50;83.90;;;;;;5047950;28;20021;-75
2023/03/24 00:47:48;;;;;;;2.35;1.70;;;14.60;84.40;;;;;;5047838;28;20037;-75
2023/03/24 00:50:25;;;;;;;1.30;1.13;;;14.70;64.70;;;;;;5047774;28;20021;-75
2023/03/24 00:52:51;;;;;;;1.73;1.35;;;;;;;;;;5048012;28;20076;-76
2023/03/24 00:55:17;;;;;;;4.40;1.73;;;;;;;;;;5047972;28;20472;-76
2023/03/24 00:57:50;;;;;;;2.00;1.70;;;14.70;75.80;;;;;;5047526;28;20108;-75
2023/03/24 01:00:22;;;;;;;2.40;1.60;;;14.60;65.10;;;;;;5047663;28;20531;-76
2023/03/24 01:02:52;;;;;;;1.98;1.63;;;14.60;65.20;;;;;;5047955;28;20025;-75
2023/03/24 01:05:26;;;;;;;2.78;1.77;;;14.50;65.30;;;;;;5044875;28;20021;-75
2023/03/24 01:07:56;;;;;;;2.38;1.73;;;14.50;65.20;;;;;;5055919;28;20021;-75
2023/03/24 01:10:25;;;;;;;4.22;2.05;;;14.50;66.10;;;;;;5058516;28;20033;-75
2023/03/24 01:12:53;;;;;;;2.30;1.88;;;14.50;65.80;;;;;;5050729;28;20025;-76
2023/03/24 01:15:22;;;;;;;2.85;1.58;;;14.50;66.00;;;;;;5062951;28;20021;-76
2023/03/24 01:17:48;;;;;;;3.65;1.80;;;;;;;;;;5050623;28;20587;-75
2023/03/24 01:20:14;;;;;;;3.92;1.85;;;14.60;85.70;;;;;;5051372;28;20056;-76
2023/03/24 01:22:43;;;;;;;3.80;1.35;;;14.50;70.60;;;;;;5059841;28;20494;-75
2023/03/24 01:25:18;;;;;;;3.08;2.03;;;14.40;66.10;;;;;;5052796;28;20029;-75
2023/03/24 01:27:44;;;;;;;2.30;1.48;;;;;;;;;;5051244;28;20043;-75
2023/03/24 01:30:22;;;;;;;1.60;1.33;;;14.20;72.80;;;;;;5050746;28;20438;-75
2023/03/24 01:32:48;;;;;;;4.45;1.70;;;;;;;;;;5050710;28;20112;-75
2023/03/24 01:35:15;;;;;;;4.13;1.60;;;;;;;;;;5050436;28;20171;-75
2023/03/24 01:37:41;;;;;;;1.50;1.30;;;14.40;66.50;;;;;;5050047;28;20494;-75
2023/03/24 01:40:08;;;;;;;1.50;1.25;;;14.40;66.50;;;;;;5051212;28;20049;-76
2023/03/24 01:42:35;;;;;;;;;;;14.40;66.90;;;;;;5051292;28;20036;-75
2023/03/24 01:45:21;;;;;;;3.00;1.83;;;14.30;66.70;;;;;;5050451;28;19927;-75
2023/03/24 01:47:48;;;;;;;3.00;1.23;;;14.30;66.30;;;;;;5062467;28;20047;-75
2023/03/24 01:50:14;;;;;;;1.55;1.45;;;;;;;;;;5048253;28;20756;-75
2023/03/24 01:52:41;;;;;;;1.73;1.13;;;14.30;66.10;;;;;;5041297;28;20123;-75
2023/03/24 01:55:14;;;;;;;1.58;1.27;;;14.40;85.70;;;;;;5049711;28;20058;-75
2023/03/24 01:57:50;;;;;;;3.63;1.33;;;14.30;65.60;;;;;;5050461;28;20033;-75
2023/03/24 02:00:17;;;;;;;2.00;1.77;;;14.40;85.30;;;;;;5050433;28;20017;-75
2023/03/24 02:02:53;;;;;;;1.92;1.50;;;14.20;66.00;;;;;;5049897;28;20036;-76
2023/03/24 02:05:23;;;;;;;2.22;1.83;;;14.40;66.40;;;;;;5050089;28;20044;-75
2023/03/24 02:08:14;;;;;;;2.50;1.55;;;14.10;66.30;;;;;;5050243;28;20120;-75
2023/03/24 02:10:40;;;;;;;2.05;1.23;;;;;;;;;;5050726;28;20029;-75
2023/03/24 02:13:06;;;;;;;3.10;1.63;;;13.90;70.10;;;;;;5052363;28;20021;-75
2023/03/24 02:15:41;;;;;;;2.75;1.30;;;14.20;84.20;;;;;;5058029;28;20446;-76
2023/03/24 02:18:26;;;;;;;1.55;1.42;;;14.00;76.10;;;;;;5044903;28;20049;-75
2023/03/24 02:21:07;;;;;;;1.45;1.35;;;14.00;67.60;;;;;;5049639;28;20037;-75
2023/03/24 02:23:57;;;;;;;2.08;1.75;;;13.80;67.60;;;;;;5049379;28;20025;-75
2023/03/24 02:26:45;;;;;;;1.98;1.40;;;14.10;87.30;;;;;;5049665;28;20013;-75
2023/03/24 02:29:10;;;;;;;;;;;13.90;66.40;;;;;;5050222;28;20032;-75
2023/03/24 02:31:48;;;;;;;1.33;1.23;;;13.90;65.40;;;;;;5048698;28;19909;-75
2023/03/24 02:34:28;;;;;;;1.05;1.05;;;14.00;63.50;;;;;;5048911;28;20189;-75
2023/03/24 02:37:36;;;;;;;3.65;1.45;;;13.90;64.30;;;;;;5048888;28;20039;-75
2023/03/24 02:40:07;;;;;;;1.63;0.93;;;14.10;61.50;;;;;;5026880;28;20068;-75
2023/03/24 02:42:38;;;;;;;2.80;1.40;;;13.90;67.60;;;;;;5027475;28;20416;-76
2023/03/24 02:45:04;;;;;;;1.48;1.10;;;;;;;;;;5026912;28;20034;-75
2023/03/24 02:47:51;;;;;;;1.55;1.33;;;13.80;59.60;;;;;;5026912;28;20032;-75
2023/03/24 02:50:21;;;;;;;1.23;0.90;;;14.00;63.30;;;;;;5026232;28;20031;-75
2023/03/24 02:53:00;;;;;;;1.77;1.13;;;14.20;62.50;;;;;;5010066;28;20068;-75
2023/03/24 02:55:33;;;;;;;1.30;1.20;;;14.10;59.70;;;;;;5026987;28;20017;-76
2023/03/24 02:58:10;;;;;;;2.42;1.35;;;14.10;59.60;;;;;;5026512;28;20803;-76
2023/03/24 03:00:58;;;;;;;1.23;1.07;;;14.10;59.70;;;;;;5026553;28;20068;-75
2023/03/24 03:03:49;;;;;;;1.10;0.98;;;14.10;59.70;;;;;;5026323;28;20033;-75
2023/03/24 03:06:28;;;;;;;2.13;1.33;;;14.00;66.30;;;;;;5026400;28;20404;-75
2023/03/24 03:08:56;;;;;;;0.93;0.90;;;14.00;59.70;;;;;;5025752;28;20068;-75
2023/03/24 03:11:22;;;;;;;0.75;0.65;;;;;;;;;;5033977;28;20037;-74
2023/03/24 03:13:58;;;;;;;1.10;1.00;;;14.00;59.60;;;;;;5057115;28;20033;-75
2023/03/24 03:16:33;;;;;;;1.25;0.95;;;14.00;79.90;;;;;;5049794;28;20431;-75
2023/03/24 03:19:02;;;;;;;3.80;1.08;;;14.00;59.60;;;;;;5043938;28;20508;-76
2023/03/24 03:21:37;;;;;;;7.10;0.93;;;14.00;59.80;;;;;;5036340;28;20068;-76
2023/03/24 03:24:11;;;;;;;2.75;2.42;;;14.00;59.80;;;;;;5048630;28;20071;-75
2023/03/24 03:26:37;;;;;;;1.45;0.82;;;14.10;80.10;;;;;;5048860;28;20043;-75
2023/03/24 03:29:10;;;;;;;1.73;1.05;;;13.90;60.00;;;;;;5048012;28;20025;-75
2023/03/24 03:31:51;;;;;;;0.98;0.80;;;13.90;60.80;;;;;;5048693;28;20483;-76
2023/03/24 03:34:32;;;;;;;3.28;1.80;;;14.00;80.20;;;;;;5047669;28;20017;-75
2023/03/24 03:37:05;;;;;;;2.05;0.88;;;14.10;72.80;;;;;;5048313;28;20021;-75
2023/03/24 03:39:37;;;;;;;1.90;1.33;;;13.90;60.00;;;;;;5048620;28;20112;-75
2023/03/24 03:42:05;;;;;;;1.50;0.90;;;14.20;80.10;;;;;;5046963;28;20035;-75
2023/03/24 03:44:30;;;;;;;;;;;14.00;60.10;;;;;;5048816;28;20033;-76
2023/03/24 03:46:56;;;;;;;1.98;1.30;;;;;;;;;;5047788;28;19916;-75
2023/03/24 03:49:24;;;;;;;6.07;1.25;;;13.80;80.10;;;;;;5046935;28;20041;-75
2023/03/24 03:51:50;;;;;;;1.23;1.13;;;;;;;;;;5048058;28;20045;-75
2023/03/24 03:54:16;;;;;;;5.20;1.27;;;13.70;67.70;;;;;;5048411;28;20025;-76
2023/03/24 03:56:43;;;;;;;2.50;1.20;;;13.80;70.60;;;;;;5048553;28;20029;-75
2023/03/24 03:59:22;;;;;;;1.50;1.23;;;13.80;60.50;;;;;;5050310;28;20056;-75
2023/03/24 04:01:48;;;;;;;1.88;1.08;;;;;;;;;;5047662;28;20020;-75
2023/03/24 04:04:52;;;;;;;3.85;1.13;;;13.80;60.70;;;;;;5047860;28;20061;-75
2023/03/24 04:07:23;;;;;;;1.27;0.90;;;13.90;68.50;;;;;;4977765;28;20035;-75
2023/03/24 04:09:57;;;;;;;2.88;1.30;;;13.80;60.90;;;;;;4986185;28;20030;-75
2023/03/24 04:12:45;;;;;;;2.17;1.17;;;13.90;81.20;;;;;;4983388;28;20593;-75
2023/03/24 04:15:11;;;;;;;1.17;1.08;;;;;;;;;;4975241;28;20604;-75
2023/03/24 04:17:54;;;;;;;2.15;1.00;;;13.90;81.40;;;;;;4986277;28;20146;-75
2023/03/24 04:20:31;;;;;;;1.25;1.00;;;13.70;61.50;;;;;;4986865;28;20030;-75
2023/03/24 04:23:08;;;;;;;1.20;1.10;;;13.80;72.70;;;;;;4985750;28;20030;-76
2023/03/24 04:25:57;;;;;;;0.93;0.93;;;13.60;62.50;;;;;;4986457;28;20042;-75
2023/03/24 04:28:32;;;;;;;1.48;1.05;;;13.60;82.80;;;;;;4986337;28;20027;-75
2023/03/24 04:31:23;;;;;;;1.33;1.20;;;13.60;62.80;;;;;;4985922;28;20041;-75
2023/03/24 04:34:19;;;;;;;1.27;0.77;;;13.40;82.70;;;;;;4985805;28;20034;-75
2023/03/24 04:37:11;;;;;;;2.55;1.15;;;13.50;63.60;;;;;;4970515;28;20034;-75
2023/03/24 04:39:41;;;;;;;1.65;1.52;;;13.50;64.00;;;;;;5037823;28;20020;-75
2023/03/24 04:42:32;;;;;;;1.67;0.98;;;13.50;74.70;;;;;;5047325;28;20021;-75
2023/03/24 04:44:59;;;;;;;2.50;1.35;;;13.50;64.50;;;;;;5047330;28;20021;-75
2023/03/24 04:47:30;;;;;;;1.65;1.40;;;13.50;64.30;;;;;;5038830;28;20028;-75
2023/03/24 04:50:05;;;;;;;2.50;0.98;;;13.50;76.10;;;;;;5051541;28;20653;-75
2023/03/24 04:52:31;;;;;;;1.17;1.08;;;13.50;72.70;;;;;;5051509;28;20091;-76
2023/03/24 04:54:57;;;;;;;0.95;0.88;;;13.40;82.30;;;;;;5051300;28;21927;-76
2023/03/24 04:57:23;;;;;;;1.52;0.77;;;;;;;;;;5050246;28;20186;-75
2023/03/24 04:59:48;;;;;;;3.40;1.35;;;13.20;85.50;;;;;;5051258;28;20419;-75
2023/03/24 05:02:14;;;;;;;1.10;0.90;;;;;;;;;;5051120;28;20029;-75
2023/03/24 05:04:40;;;;;;;1.67;1.23;;;13.40;82.50;;;;;;5051038;28;20395;-76
2023/03/24 05:07:06;;;;;;;1.10;1.00;;;;;;;;;;5051456;28;20032;-75
2023/03/24 05:09:32;;;;;;;1.08;0.95;;;;;;;;;;5051338;28;20035;-75
2023/03/24 05:11:58;;;;;;;1.25;1.05;;;13.50;74.20;;;;;;5051352;28;20033;-75
2023/03/24 05:14:24;;;;;;;3.45;1.23;;;;;;;;;;5060490;28;20021;-75
2023/03/24 05:16:50;;;;;;;2.67;1.20;;;;;;;;;;5051062;28;20025;-75
2023/03/24 05:19:16;;;;;;;1.48;1.20;;;13.30;80.40;;;;;;5051221;28;20036;-75
2023/03/24 05:21:42;;;;;;;1.95;1.08;;;13.20;66.50;;;;;;5050337;28;20041;-75
2023/03/24 05:24:08;;;;;;;1.00;0.82;;;;;;;;;;5050982;28;20029;-75
2023/03/24 05:26:34;;;;;;;1.00;0.90;;;;;;;;;;5051078;28;20025;-75
2023/03/24 05:29:00;;;;;;;1.33;1.05;;;;;;;;;;5050608;28;20495;-76
2023/03/24 05:31:26;;;;;;;1.50;1.20;;;;;;;;;;5050835;28;20021;-75
2023/03/24 05:33:52;;;;;;;1.77;1.23;;;;;;;;;;5050875;28;20075;-75
2023/03/24 05:36:18;;;;;;;1.35;1.23;;;;;;;;;;5050669;28;20396;-76
2023/03/24 05:38:44;;;;;;;1.08;0.98;;;;;;;;;;5050107;28;20041;-75
2023/03/24 05:41:10;;;;;;;1.17;0.93;;;;;;;;;;5050814;28;20041;-75
2023/03/24 05:43:36;;;;;;;2.33;1.20;;;13.20;75.20;;;;;;5050500;28;20549;-75
2023/03/24 05:46:02;;;;;;;1.25;1.10;;;;;;;;;;5050815;28;20082;-76
2023/03/24 05:48:28;;;;;;;2.97;1.20;;;;;;;;;;5050745;28;20029;-75
2023/03/24 05:50:53;;;;;;;1.63;1.42;;;12.90;81.40;;;;;;5050609;28;20526;-75
2023/03/24 05:53:19;;;;;;;1.42;1.25;;;13.10;79.90;;;;;;5050773;28;20029;-75
2023/03/24 05:55:46;;;;;;;1.40;1.17;;;;;;;;;;5050067;28;20395;-75
2023/03/24 05:58:12;;;;;;;1.15;1.05;;;;;;;;;;5049044;28;20041;-75
2023/03/24 06:00:38;;;;;;;1.40;1.23;;;;;;;;;;5050897;28;20018;-75
2023/03/24 06:03:04;;;;;;;1.83;1.25;;;13.10;71.10;;;;;;5051024;28;20510;-75
2023/03/24 06:05:31;;;;;;;1.38;1.08;;;12.90;80.40;;;;;;5060848;28;20027;-76
2023/03/24 06:07:57;;;;;;;1.10;1.00;;;13.20;71.60;;;;;;5050145;28;20040;-75
2023/03/24 06:10:26;;;;;;;2.20;0.90;;;12.80;74.50;;;;;;5050238;28;20029;-75
2023/03/24 06:12:54;;;;;;;6.60;1.58;;;13.20;71.50;;;;;;5050135;28;20267;-75
2023/03/24 06:15:21;;;;;;;1.42;1.00;;;;;;;;;;5060117;28;20474;-75
2023/03/24 06:17:48;;;;;;;1.83;1.23;;;13.30;90.80;;;;;;5049868;28;20048;-75
2023/03/24 06:20:15;;;;;;;0.63;0.63;;;13.30;71.50;;;;;;5046859;28;20060;-75
2023/03/24 06:22:46;;;;;;;1.23;0.73;;;13.20;75.90;;;;;;5047702;28;20037;-76
2023/03/24 06:25:14;;;;;;;2.95;1.00;;;13.20;71.40;;;;;;5047268;28;20602;-75
2023/03/24 06:27:45;;;;;;;2.35;1.05;;;13.40;71.70;;;;;;5047677;28;20039;-75
2023/03/24 06:30:12;;;;;;;1.13;0.93;;;13.90;91.10;;;;;;5047892;28;20155;-75
2023/03/24 06:32:38;;;;;;;1.65;0.95;;;;;;;;;;5047681;28;20037;-75
2023/03/24 06:35:04;;;;;;;1.92;1.30;;;;;;;;;;5047944;28;20017;-75
2023/03/24 06:37:30;;;;;;;1.65;1.52;;;;;;;;;;5048690;28;20124;-76
2023/03/24 06:39:56;;;;;;;1.30;1.20;;;;;;;;;;5048230;28;20447;-81
2023/03/24 06:42:22;;;;;;;2.33;1.73;;;;;;;;;;5047899;28;20028;-81
2023/03/24 06:44:50;;;;;;;1.88;1.77;;;;;;;;;;5048428;28;20017;-80
2023/03/24 06:47:16;;;;;;;2.90;1.38;;;;;;;;;;5048425;28;20033;-76
2023/03/24 06:49:42;;;;;;;1.25;1.15;;;;;;;;;;5047784;28;20029;-76
2023/03/24 06:52:08;;;;;;;1.48;0.98;;;;;;;;;;5047373;28;20523;-76
2023/03/24 06:54:34;;;;;;;1.25;1.13;;;;;;;;;;5048211;28;20021;-77
2023/03/24 06:57:00;;;;;;;1.92;1.67;;;;;;;;;;5047623;28;20032;-76
2023/03/24 06:59:27;;;;;;;1.00;1.00;;;;;;;;;;5048212;28;20025;-76
2023/03/24 07:01:53;;;;;;;3.40;1.07;;;12.70;72.00;;;;;;5048072;28;20104;-76
2023/03/24 07:04:19;;;;;;;2.63;1.08;;;13.80;72.60;;;;;;5047966;28;21236;-76
2023/03/24 07:06:46;;;;;;;1.87;1.10;;;;;;;;;;5047857;28;20017;-76
2023/03/24 07:09:12;;;;;;;1.58;1.30;;;;;;;;;;5047757;28;20350;-77
2023/03/24 07:11:38;;;;;;;1.17;1.08;;;;;;;;;;5046602;28;20044;-79
2023/03/24 07:14:04;;;;;;;3.25;2.03;;;;;;;;;;5056835;28;20024;-76
2023/03/24 07:16:30;;;;;;;5.15;2.33;;;;;;;;;;5036534;28;20111;-76
2023/03/24 07:18:56;;;;;;;3.55;2.17;;;;;;;;;;5039637;28;20029;-79
2023/03/24 07:21:22;;;;;;;3.10;2.05;;;;;;;;;;5046690;28;20506;-80
2023/03/24 07:23:48;;;;;;;2.65;1.58;;;;;;;;;;5045451;28;20033;-78
2023/03/24 07:26:14;;;;;;;2.47;1.63;;;14.30;75.50;;;;;;5045132;28;20116;-79
2023/03/24 07:28:40;;;;;;;1.73;1.17;;;;;;;;;;5036667;28;20563;-80
2023/03/24 07:31:09;;;;;;;1.10;1.00;;;;;;;;;;5045908;28;20028;-80
2023/03/24 07:33:36;;;;;;;1.30;1.00;;;;;;;;;;5047778;28;20028;-79
2023/03/24 07:36:02;;;;;;;0.95;0.93;;;;;;;;;;5041540;28;20024;-79
2023/03/24 07:38:28;;;;;;;3.47;2.10;;;;;;;;;;5047677;28;20033;-76
2023/03/24 07:40:54;;;;;;;2.25;1.90;;;;;;;;;;5043591;28;20044;-77
2023/03/24 07:43:20;;;;;;;5.30;2.47;;;;;;;;;;5047401;28;20056;-76
2023/03/24 07:45:46;;;;;;;2.83;2.00;;;;;;;;;;5045223;28;20021;-77
2023/03/24 07:48:12;;;;;;;3.22;2.15;;;;;;;;;;5047180;28;20029;-77
2023/03/24 07:50:39;;;;;;;3.63;2.30;;;;;;;;;;5039358;28;20032;-76
2023/03/24 07:53:08;;;;;;;2.38;1.80;;;;;;;;;;5039705;28;20124;-77
2023/03/24 07:55:34;;;;;;;3.72;1.73;;;;;;;;;;5040925;28;20028;-78
2023/03/24 07:58:00;;;;;;;1.50;1.27;;;;;;;;;;5047144;28;20568;-77
2023/03/24 08:00:27;;;;;;;3.15;2.47;;;14.70;90.40;;;;;;5045870;28;20029;-78
2023/03/24 08:02:54;;;;;;;2.28;2.08;;;;;;;;;;5051023;28;20033;-78
2023/03/24 08:05:21;;;;;;;1.55;1.35;;;14.50;71.50;;;;;;5045504;28;20036;-80
2023/03/24 08:07:52;;;;;;;2.08;1.48;;;14.50;71.40;;;;;;5044843;28;20232;-83
2023/03/24 08:10:23;;;;;;;2.17;1.30;;;14.50;71.40;;;;;;5058125;28;20140;-82
2023/03/24 08:12:49;;;;;;;2.00;1.20;;;;;;;;;;5044198;28;20032;-77
2023/03/24 08:15:16;;;;;;;3.50;1.13;;;;;;;;;;5047768;28;20017;-77
2023/03/24 08:17:42;;;;;;;1.95;1.85;;;;;;;;;;5047004;28;20068;-78
2023/03/24 08:20:13;;;;;;;8.45;4.03;;;13.90;71.30;;;;;;5042739;28;20025;-77
2023/03/24 08:22:41;;;;;;;3.72;1.15;;;14.50;71.40;;;;;;5051127;28;20396;-77
2023/03/24 08:25:09;;;;;;;5.50;3.08;;;14.60;71.50;;;;;;5051537;28;20559;-77
2023/03/24 08:27:36;;;;;;;7.22;3.25;;;;;;;;;;5051110;28;20037;-77
2023/03/24 08:30:04;;;;;;;11.63;4.10;;;14.60;71.20;;;;;;5047512;28;20049;-81
2023/03/24 08:32:30;;;;;;;2.13;1.65;;;;;;;;;;5048793;28;20039;-83
2023/03/24 08:34:57;;;;;;;10.95;5.13;;;14.80;70.90;;;;;;5050998;28;20043;-82
2023/03/24 08:37:22;;;;;;;7.28;4.35;;;14.70;89.60;;;;;;5050840;28;20154;-82
2023/03/24 08:39:48;;;;;;;9.45;3.10;;;;;;;;;;5051034;28;20033;-77
2023/03/24 08:42:14;;;;;;;2.60;1.95;;;;;;;;;;5050972;28;20029;-77
2023/03/24 08:44:41;;;;;;;6.35;4.78;;;;;;;;;;5050834;28;20081;-81
2023/03/24 08:47:07;;;;;;;2.85;2.33;;;;;;;;;;5049481;28;20020;-76
2023/03/24 08:49:33;;;;;;;2.13;1.75;;;;;;;;;;5050482;28;20689;-77
2023/03/24 08:51:59;;;;;;;2.22;1.80;;;;;;;;;;5050695;28;20124;-78
2023/03/24 08:54:25;;;;;;;2.30;1.77;;;;;;;;;;5051209;28;20499;-86
2023/03/24 08:56:51;;;;;;;1.35;1.20;;;15.70;86.20;;;;;;5050658;28;20040;-85
2023/03/24 08:59:17;;;;;;;1.52;1.42;;;;;;;;;;5049364;28;20025;-85
2023/03/24 09:01:43;;;;;;;2.10;1.90;;;;;;;;;;5045698;28;20021;-84
2023/03/24 09:04:09;;;;;;;1.58;1.48;;;;;;;;;;5050237;28;20056;-79
2023/03/24 09:06:35;;;;;;;1.23;1.13;;;;;;;;;;5042246;28;20589;-77
2023/03/24 09:09:01;;;;;;;1.33;1.00;;;;;;;;;;5050745;28;20033;-77
2023/03/24 09:11:27;;;;;;;1.27;1.17;;;16.80;76.30;;;;;;5050045;28;20538;-77
2023/03/24 09:13:53;;;;;;;1.40;1.15;;;16.50;72.70;;;;;;5059999;28;20093;-76
2023/03/24 09:16:19;;;;;;;0.80;0.80;;;;;;;;;;5052163;28;20670;-76
2023/03/24 09:18:45;;;;;;;0.90;0.90;;;;;;;;;;5050005;28;20045;-77
2023/03/24 09:21:11;;;;;;;1.48;1.27;;;16.70;80.10;;;;;;5049178;28;20029;-77
2023/03/24 09:23:37;;;;;;;2.85;1.10;;;;;;;;;;5049622;28;20112;-85
2023/03/24 09:26:04;;;;;;;1.35;1.25;;;17.80;79.30;;;;;;5049998;28;20024;-80
2023/03/24 09:28:30;;;;;;;4.00;1.27;;;15.60;58.50;;;;;;5045794;28;20471;-76
2023/03/24 09:31:04;;;;;;;2.10;1.77;;;17.60;59.50;;;;;;5049941;28;20027;-75
2023/03/24 09:33:30;;;;;;;1.67;1.58;;;;;;;;;;5049328;28;20087;-75
2023/03/24 09:35:58;;;;;;;2.20;1.63;;;18.20;72.00;;;;;;5049656;28;20079;-76
2023/03/24 09:38:23;;;;;;;2.03;1.45;;;18.80;76.80;;;;;;5050111;28;20096;-75
2023/03/24 09:41:01;;;;;;;1.60;1.13;;;18.40;75.70;;;;;;5048854;28;20488;-75
2023/03/24 09:43:36;;;;;;;1.20;1.10;;;18.40;57.20;;;;;;5049419;28;20114;-84
2023/03/24 09:46:05;;;;;;;2.75;2.30;;;18.30;57.70;;;;;;5050305;28;20175;-82
2023/03/24 09:48:40;;;;;;;1.30;1.20;;;18.80;61.50;;;;;;5049453;28;20032;-81
2023/03/24 09:51:42;;;;;;;2.17;1.77;;;18.60;60.10;;;;;;5049553;28;20068;-81
2023/03/24 09:54:08;;;;;;;1.35;1.23;;;;;;;;;;5026983;28;20033;-76
2023/03/24 09:56:41;;;;;;;1.20;1.10;;;17.80;66.70;;;;;;5026346;28;20041;-76
2023/03/24 09:59:07;;;;;;;1.40;1.30;;;;;;;;;;5027015;28;20153;-77
2023/03/24 10:01:35;;;;;;;2.55;1.60;;;17.80;78.50;;;;;;5026177;28;20646;-76
2023/03/24 10:04:01;;;;;;;1.05;0.90;;;;;;;;;;5005623;28;20560;-76
2023/03/24 10:06:40;;;;;;;3.38;1.20;;;17.20;61.30;;;;;;5025059;28;20199;-77
2023/03/24 10:09:09;;;;;;;1.20;1.00;;;16.90;68.10;;;;;;5026727;28;20120;-76
2023/03/24 10:11:35;;;;;;;1.10;0.98;;;;;;;;;;5026459;28;20106;-76
2023/03/24 10:14:03;;;;;;;5.47;1.40;;;17.00;81.40;;;;;;5025520;28;20097;-76
2023/03/24 10:16:45;;;;;;;1.10;0.90;;;17.50;62.30;;;;;;5023150;28;20091;-82
2023/03/24 10:19:35;;;;;;;1.67;1.00;;;18.30;79.80;;;;;;5017999;28;20939;-84
2023/03/24 10:22:25;;;;;;;5.35;1.00;;;19.30;63.90;;;;;;5025683;28;20060;-84
2023/03/24 10:24:56;;;;;;;1.05;1.05;;;19.70;58.00;;;;;;5026007;28;20181;-83
2023/03/24 10:27:32;;;;;;;1.77;1.13;;;19.70;69.10;;;;;;5029379;28;20440;-83
2023/03/24 10:30:19;;;;;;;1.13;0.90;;;19.40;58.10;;;;;;5030094;28;20599;-77
2023/03/24 10:32:45;;;;;;;1.17;1.08;;;;;;;;;;5048333;28;20029;-80
2023/03/24 10:35:23;;;;;;;1.08;1.08;;;18.40;65.70;;;;;;5050736;28;20515;-84
2023/03/24 10:37:50;;;;;;;1.33;1.10;;;18.40;62.50;;;;;;5037153;28;20831;-85
2023/03/24 10:40:19;;;;;;;6.25;1.08;;;17.90;60.90;;;;;;5048682;28;20029;-84
2023/03/24 10:42:48;;;;;;;1.90;1.77;;;17.60;80.20;;;;;;5049304;28;20415;-84
2023/03/24 10:45:24;;;;;;;1.80;1.52;;;17.30;62.30;;;;;;5048715;28;20028;-82
2023/03/24 10:47:52;;;;;;;1.73;1.63;;;17.00;62.80;;;;;;5048732;28;20021;-83
2023/03/24 10:50:22;;;;;;;2.10;1.60;;;17.10;68.60;;;;;;5048606;28;20032;-84
2023/03/24 10:52:49;;;;;;;6.40;1.83;;;;;;;;;;5048601;28;20124;-85
2023/03/24 10:55:17;;;;;;;4.57;1.42;;;17.20;72.30;;;;;;5047635;28;20510;-83
2023/03/24 10:57:47;;;;;;;2.55;1.83;;;17.80;62.20;;;;;;5048105;28;20045;-81
2023/03/24 11:00:30;;;;;;;1.35;1.23;;;18.10;61.20;;;;;;5047273;28;20395;-82
2023/03/24 11:03:04;;;;;;;2.10;1.60;;;18.20;77.50;;;;;;5048239;28;20079;-83
2023/03/24 11:05:38;;;;;;;1.45;1.35;;;18.20;60.40;;;;;;5048100;28;20025;-84
2023/03/24 11:08:16;;;;;;;1.92;1.38;;;18.20;60.40;;;;;;5048152;28;20036;-81
2023/03/24 11:10:42;;;;;;;2.10;1.40;;;;;;;;;;5041060;28;20103;-76
2023/03/24 11:13:22;;;;;;;4.07;2.13;;;17.80;75.50;;;;;;5048347;28;20112;-76
2023/03/24 11:15:56;;;;;;;1.83;1.33;;;17.70;61.40;;;;;;5046927;28;20082;-76
2023/03/24 11:18:22;;;;;;;2.15;1.55;;;;;;;;;;5036241;28;20044;-75
2023/03/24 11:20:53;;;;;;;1.95;1.42;;;17.10;74.40;;;;;;5047955;28;20442;-75
2023/03/24 11:23:41;;;;;;;2.10;1.48;;;16.90;63.50;;;;;;5047971;28;20028;-75
2023/03/24 11:26:14;;;;;;;3.80;2.28;;;16.60;64.20;;;;;;5047929;28;20036;-74
2023/03/24 11:28:44;;;;;;;3.05;1.52;;;16.40;64.70;;;;;;5047743;28;20017;-75
2023/03/24 11:31:17;;;;;;;1.70;1.60;;;16.30;65.40;;;;;;5047110;28;20095;-75
2023/03/24 11:34:08;;;;;;;4.60;1.85;;;16.10;66.10;;;;;;5047124;28;20086;-75
2023/03/24 11:36:34;;;;;;;2.85;2.00;;;;;;;;;;5046241;28;20032;-75
2023/03/24 11:39:02;;;;;;;2.85;1.90;;;15.80;67.40;;;;;;5043667;28;20036;-75
2023/03/24 11:41:29;;;;;;;6.68;1.85;;;15.60;68.00;;;;;;5047345;28;20375;-75
2023/03/24 11:44:17;;;;;;;4.30;2.47;;;15.50;68.40;;;;;;5045920;28;20029;-74
2023/03/24 11:46:52;;;;;;;3.58;1.70;;;15.30;69.10;;;;;;5046620;28;20404;-74
2023/03/24 11:49:22;;;;;;;2.75;1.55;;;15.20;69.60;;;;;;5045244;28;20021;-75
2023/03/24 11:51:51;;;;;;;1.50;1.40;;;15.10;71.60;;;;;;5046437;28;20182;-76
2023/03/24 11:54:20;;;;;;;1.35;1.25;;;15.00;71.50;;;;;;5046786;28;20589;-75
2023/03/24 11:56:51;;;;;;;3.08;1.60;;;15.00;72.20;;;;;;5043106;28;20017;-75
2023/03/24 11:59:28;;;;;;;2.95;1.20;;;15.00;85.80;;;;;;5047553;28;20039;-75
2023/03/24 12:02:17;;;;;;;1.17;1.08;;;15.30;73.10;;;;;;5050689;28;20035;-75
2023/03/24 12:05:10;;;;;;;2.75;2.00;;;15.20;91.00;;;;;;5044953;28;20031;-74
2023/03/24 12:07:56;;;;;;;1.77;1.40;;;15.10;74.70;;;;;;5047003;28;20492;-75
2023/03/24 12:10:41;;;;;;;3.28;1.30;;;15.00;91.20;;;;;;5040167;28;20024;-75
2023/03/24 12:13:15;;;;;;;4.72;1.63;;;15.20;74.50;;;;;;5047847;28;20101;-75
2023/03/24 12:15:41;;;;;;;2.83;1.38;;;;;;;;;;5053717;28;20779;-75
2023/03/24 12:18:15;;;;;;;2.70;2.15;;;14.90;77.90;;;;;;5047094;28;20120;-75
2023/03/24 12:21:18;;;;;;;2.40;1.40;;;14.90;78.30;;;;;;5047024;28;20045;-76
2023/03/24 12:24:07;;;;;;;2.85;1.77;;;14.80;80.10;;;;;;5046236;28;20032;-76
2023/03/24 12:26:34;;;;;;;4.45;2.17;;;14.70;80.90;;;;;;5036044;28;20120;-75
2023/03/24 12:29:18;;;;;;;4.20;2.10;;;15.20;87.20;;;;;;5047011;28;20032;-75
2023/03/24 12:31:58;;;;;;;2.20;2.00;;;14.60;83.90;;;;;;5038448;28;20040;-75
2023/03/24 12:34:36;;;;;;;3.65;1.98;;;14.60;84.90;;;;;;5047111;28;20514;-76
2023/03/24 12:37:33;;;;;;;3.88;2.40;;;14.70;96.60;;;;;;5047308;28;20143;-76
2023/03/24 12:40:05;;;;;;;2.67;2.05;;;;;;;;;;5040867;28;20056;-80
2023/03/24 12:42:38;;;;;;;7.20;2.80;;;16.00;82.40;;;;;;5047258;28;20025;-80
2023/03/24 12:45:05;;;;;;;3.30;2.90;;;;;;;;;;5046878;28;20076;-80
2023/03/24 12:47:30;;;;;;;5.68;3.13;;;;;;;;;;5046434;28;20032;-80
2023/03/24 12:50:27;;;;;;;3.53;2.50;;;18.50;89.10;;;;;;5047167;28;20024;-81
2023/03/24 12:53:29;;;;;;;6.77;2.90;;;18.70;86.70;;;;;;5054303;28;20132;-79
2023/03/24 12:56:04;;;;;;;3.00;2.60;;;18.30;68.50;;;;;;5037064;28;20037;-81
2023/03/24 12:58:42;;;;;;;6.45;2.70;;;18.10;69.00;;;;;;5046427;28;20037;-80
2023/03/24 13:01:11;;;;;;;2.85;2.38;;;17.70;69.80;;;;;;5046399;28;20025;-82
2023/03/24 13:03:42;;;;;;;5.47;2.35;;;17.40;71.60;;;;;;5046230;28;20033;-80
2023/03/24 13:06:19;;;;;;;3.40;2.30;;;17.10;72.70;;;;;;5046716;28;20447;-80
2023/03/24 13:08:54;;;;;;;2.88;1.95;;;17.90;75.00;;;;;;5050853;28;20045;-80
2023/03/24 13:11:37;;;;;;;4.70;2.42;;;16.30;76.50;;;;;;5050970;28;20572;-80
2023/03/24 13:14:09;;;;;;;4.63;2.25;;;15.80;79.40;;;;;;5059826;28;20025;-81
2023/03/24 13:16:37;;;;;;;2.97;2.00;;;15.40;82.20;;;;;;5050659;28;20467;-80
2023/03/24 13:19:10;;;;;;;7.43;2.95;;;15.30;83.80;;;;;;5050076;28;20146;-80
2023/03/24 13:21:36;;;;;;;7.57;3.28;;;;;;;;;;5049907;28;20039;-81
2023/03/24 13:24:07;;;;;;;2.78;2.33;;;15.80;87.30;;;;;;5049562;28;20104;-80
2023/03/24 13:26:46;;;;;;;2.53;2.03;;;15.50;95.20;;;;;;5049948;28;20025;-82
2023/03/24 13:29:40;;;;;;;2.58;2.17;;;15.30;87.60;;;;;;5045920;28;20032;-82
2023/03/24 13:32:22;;;;;;;2.92;1.90;;;;;;;;;;5044226;28;20033;-78
2023/03/24 13:35:14;;;;;;;9.68;2.17;;;14.70;91.00;;;;;;5049389;28;20496;-78
2023/03/24 13:37:50;;;;;;;7.05;2.55;;;14.70;93.30;;;;;;5049142;28;20033;-79
2023/03/24 13:40:26;;;;;;;5.47;2.95;;;14.40;93.40;;;;;;5049806;28;20104;-78
2023/03/24 13:42:58;;;;;;;10.20;4.22;;;14.30;93.80;;;;;;5049468;28;20415;-81
2023/03/24 13:45:24;;;;;;;4.38;3.47;;;;;;;;;;5049580;28;20021;-82